Time;durP1;ratioP1;P1;durP2;ratioP2;P2;SDS_P1;SDS_P2;PMS_P1;PMS_P2;Temp;Humidity;BMP_temperature;BMP_pressure;BME280_temperature;BME280_humidity;BME280_pressure;Samples;Min_cycle;Max_cycle;Signal;HPM_P1;HPM_P2
2022/01/02 00:00:05;;;;;;;;;;;;;;;14.71;47.78;99182.53;1745701;82;20424;-63
2022/01/02 00:02:33;;;;;;;;;;;;;;;14.63;48.01;99186.34;1745923;82;20520;-63
2022/01/02 00:05:08;;;;;;;;;;;;;;;14.83;47.77;99189.30;1754744;81;20184;-63
2022/01/02 00:07:38;;;;;;;;;;;;;;;14.08;49.13;99180.28;1753999;81;21137;-64
2022/01/02 00:10:09;;;;;;;;;;;;;;;14.23;49.10;99176.64;1747554;81;20159;-63
2022/01/02 00:12:35;;;;;;;;;;;;;;;14.09;49.54;99174.83;1754074;81;20663;-63
2022/01/02 00:15:04;;;;;;;;;;;;;;;14.00;49.99;99167.55;1750068;81;20145;-63
2022/01/02 00:17:31;;;;;;;;;;;;;;;14.05;49.94;99162.39;1754650;81;20698;-62
2022/01/02 00:20:01;;;;;;;;;;;;;;;14.07;49.84;99161.66;1752347;81;21124;-62
2022/01/02 00:22:36;;;;;;;;;;;;;;;14.29;49.44;99159.20;1753972;80;20157;-63
2022/01/02 00:24:57;;;;;;;;;;;;;;;14.03;49.74;99159.23;1753636;81;20105;-63
2022/01/02 00:27:23;;;;;;;;;;;;;;;14.09;49.66;99166.96;1755833;81;20177;-62
2022/01/02 00:29:50;;;;;;;;;;;;;;;13.95;49.94;99163.52;1754046;81;20094;-64
2022/01/02 00:32:17;;;;;;;;;;;;;;;14.15;49.80;99161.81;1755028;81;21215;-64
2022/01/02 00:34:43;;;;;;;;;;;;;;;14.27;49.40;99162.04;1754212;81;20095;-64
2022/01/02 00:37:10;;;;;;;;;;;;;;;14.20;49.43;99164.00;1754039;81;20528;-65
2022/01/02 00:39:37;;;;;;;;;;;;;;;14.27;49.44;99167.28;1750654;81;20570;-63
2022/01/02 00:42:13;;;;;;;;;;;;;;;14.44;49.05;99163.94;1752648;81;20153;-63
2022/01/02 00:44:48;;;;;;;;;;;;;;;14.34;49.31;99161.91;1744393;80;20200;-63
2022/01/02 00:47:27;;;;;;;;;;;;;;;14.75;48.64;99160.83;1746352;81;20457;-63
2022/01/02 00:50:09;;;;;;;;;;;;;;;13.85;50.16;99161.48;1745054;81;20165;-63
2022/01/02 00:52:37;;;;;;;;;;;;;;;13.54;51.07;99163.97;1757497;80;20122;-63
2022/01/02 00:55:10;;;;;;;;;;;;;;;13.49;51.10;99158.64;1747531;81;20387;-62
2022/01/02 00:57:39;;;;;;;;;;;;;;;13.42;50.94;99157.44;1753734;81;21166;-63
2022/01/02 01:00:15;;;;;;;;;;;;;;;13.65;50.51;99161.06;1754757;81;20172;-63
2022/01/02 01:02:46;;;;;;;;;;;;;;;13.93;49.62;99160.33;1753446;81;20196;-62
2022/01/02 01:05:23;;;;;;;;;;;;;;;14.11;49.13;99158.34;1754895;81;20209;-63
2022/01/02 01:07:51;;;;;;;;;;;;;;;13.78;49.59;99158.98;1754207;81;20497;-62
2022/01/02 01:10:19;;;;;;;;;;;;;;;14.17;48.95;99153.19;1763579;80;22667;-63
2022/01/02 01:12:52;;;;;;;;;;;;;;;14.02;49.11;99151.09;1753437;81;20273;-62
2022/01/02 01:15:24;;;;;;;;;;;;;;;13.74;49.75;99155.23;1754815;81;20094;-62
2022/01/02 01:17:53;;;;;;;;;;;;;;;13.90;49.57;99152.92;1755003;81;20142;-62
2022/01/02 01:20:21;;;;;;;;;;;;;;;13.87;49.70;99161.55;1763763;80;20188;-64
2022/01/02 01:22:48;;;;;;;;;;;;;;;13.95;49.73;99160.91;1752917;81;21064;-62
2022/01/02 01:25:18;;;;;;;;;;;;;;;13.82;50.03;99168.48;1754601;81;20200;-63
2022/01/02 01:27:46;;;;;;;;;;;;;;;14.08;49.61;99165.87;1754171;81;20106;-63
2022/01/02 01:30:13;;;;;;;;;;;;;;;14.31;48.82;99169.72;1754815;81;20275;-63
2022/01/02 01:32:43;;;;;;;;;;;;;;;13.96;49.19;99171.66;1754254;81;20308;-62
2022/01/02 01:35:11;;;;;;;;;;;;;;;13.71;50.29;99179.77;1754579;81;21224;-63
2022/01/02 01:37:40;;;;;;;;;;;;;;;13.83;50.10;99174.82;1752681;81;20229;-62
2022/01/02 01:40:08;;;;;;;;;;;;;;;14.11;49.46;99179.82;1754084;81;20145;-63
2022/01/02 01:42:40;;;;;;;;;;;;;;;14.20;49.27;99178.94;1754788;81;20161;-63
2022/01/02 01:47:51;;;;;;;;;;;;;;;14.16;49.04;99185.16;1750614;81;20142;-63
2022/01/02 01:50:20;;;;;;;;;;;;;;;14.31;49.12;99174.16;1740454;81;20106;-62
2022/01/02 01:52:46;;;;;;;;;;;;;;;14.27;48.78;99176.98;1752849;81;20439;-63
2022/01/02 01:55:18;;;;;;;;;;;;;;;14.04;49.28;99179.16;1755374;81;20181;-65
2022/01/02 01:57:48;;;;;;;;;;;;;;;14.31;49.15;99181.52;1750025;81;20166;-63
2022/01/02 02:00:16;;;;;;;;;;;;;;;14.30;48.97;99179.93;1725539;81;21189;-64
2022/01/02 02:02:47;;;;;;;;;;;;;;;14.15;49.20;99176.23;1744172;81;20133;-63
2022/01/02 02:05:14;;;;;;;;;;;;;;;13.87;49.71;99177.27;1755378;81;20170;-63
2022/01/02 02:07:43;;;;;;;;;;;;;;;13.87;49.79;99180.40;1753955;81;20110;-63
2022/01/02 02:10:15;;;;;;;;;;;;;;;13.22;51.37;99181.30;1755024;81;20182;-64
2022/01/02 02:12:43;;;;;;;;;;;;;;;13.50;51.13;99179.34;1753058;81;21190;-64
2022/01/02 02:15:10;;;;;;;;;;;;;;;13.94;50.33;99178.94;1755320;81;20237;-64
2022/01/02 02:17:37;;;;;;;;;;;;;;;13.90;50.13;99176.50;1753718;81;20142;-64
2022/01/02 02:20:16;;;;;;;;;;;;;;;14.14;49.50;99183.30;1742888;81;20919;-63
2022/01/02 02:22:46;;;;;;;;;;;;;;;14.32;48.96;99176.57;1747163;81;20186;-64
2022/01/02 02:25:14;;;;;;;;;;;;;;;14.05;49.49;99176.80;1751311;81;21135;-64
2022/01/02 02:27:53;;;;;;;;;;;;;;;13.96;50.02;99180.83;1717757;81;20589;-65
2022/01/02 02:30:20;;;;;;;;;;;;;;;14.23;49.42;99181.89;1754691;81;20196;-64
2022/01/02 02:32:47;;;;;;;;;;;;;;;13.99;49.53;99184.30;1753382;81;20082;-64
2022/01/02 02:35:14;;;;;;;;;;;;;;;14.13;49.42;99186.95;1723785;81;20539;-64
2022/01/02 02:37:43;;;;;;;;;;;;;;;13.84;50.15;99190.02;1750459;81;21167;-64
2022/01/02 02:40:14;;;;;;;;;;;;;;;13.68;50.15;99190.22;1763157;80;20192;-64
2022/01/02 02:42:50;;;;;;;;;;;;;;;13.45;50.98;99192.81;1753419;81;20151;-63
2022/01/02 02:51:05;;;;;;;;;;;;;;;14.24;48.99;99197.09;1741971;82;20413;-66
2022/01/02 02:53:40;;;;;;;;;;;;;;;14.52;48.35;99194.53;1746853;81;20175;-65
2022/01/02 02:56:19;;;;;;;;;;;;;;;14.61;47.78;99200.19;1744174;82;20165;-62
2022/01/02 02:58:44;;;;;;;;;;;;;;;14.60;47.52;99197.29;1745262;80;20110;-63
2022/01/02 03:01:15;;;;;;;;;;;;;;;14.66;47.45;99202.92;1746521;81;21216;-62
2022/01/02 03:03:45;;;;;;;;;;;;;;;14.22;48.27;99213.06;1744920;81;21165;-61
2022/01/02 03:06:12;;;;;;;;;;;;;;;13.95;48.57;99218.54;1736408;82;20099;-62
2022/01/02 03:08:40;;;;;;;;;;;;;;;14.25;48.25;99225.71;1735544;82;20119;-62
2022/01/02 03:11:13;;;;;;;;;;;;;;;14.18;48.26;99226.36;1692173;82;20224;-65
2022/01/02 03:13:38;;;;;;;;;;;;;;;13.91;48.67;99222.13;1736895;81;20197;-65
2022/01/02 03:16:04;;;;;;;;;;;;;;;13.68;49.21;99229.50;1734718;82;21814;-65
2022/01/02 03:18:32;;;;;;;;;;;;;;;13.70;49.38;99231.87;1734682;82;20477;-65
2022/01/02 03:21:02;;;;;;;;;;;;;;;13.47;49.74;99235.28;1734748;82;20107;-65
2022/01/02 03:23:29;;;;;;;;;;;;;;;13.86;49.23;99235.92;1733067;81;20222;-63
2022/01/02 03:25:55;;;;;;;;;;;;;;;13.98;48.74;99242.46;1734478;82;20254;-63
2022/01/02 03:28:22;;;;;;;;;;;;;;;14.16;48.48;99243.33;1725363;82;21126;-63
2022/01/02 03:30:49;;;;;;;;;;;;;;;14.34;47.92;99240.03;1732857;82;20216;-64
2022/01/02 03:33:18;;;;;;;;;;;;;;;14.16;48.17;99248.56;1731360;81;20099;-63
2022/01/02 03:35:46;;;;;;;;;;;;;;;14.08;48.18;99250.52;1737008;82;20161;-63
2022/01/02 03:38:15;;;;;;;;;;;;;;;13.91;48.25;99261.95;1758813;80;20186;-63
2022/01/02 03:40:43;;;;;;;;;;;;;;;14.06;48.24;99264.89;1735463;82;21075;-63
2022/01/02 03:43:09;;;;;;;;;;;;;;;14.36;47.62;99271.28;1737645;82;20803;-63
2022/01/02 03:45:39;;;;;;;;;;;;;;;14.25;47.91;99265.55;1735649;82;20213;-63
2022/01/02 03:48:08;;;;;;;;;;;;;;;14.42;47.50;99269.55;1735858;82;20697;-63
2022/01/02 03:50:35;;;;;;;;;;;;;;;14.73;46.81;99277.00;1731553;82;20095;-63
2022/01/02 03:53:02;;;;;;;;;;;;;;;14.63;47.07;99272.09;1723126;81;21171;-64
2022/01/02 03:55:28;;;;;;;;;;;;;;;14.39;47.67;99278.66;1740159;82;20169;-64
2022/01/02 03:57:55;;;;;;;;;;;;;;;14.20;47.81;99283.25;1724245;83;20982;-64
2022/01/02 04:00:21;;;;;;;;;;;;;;;14.09;48.37;99290.61;1723834;81;20188;-64
2022/01/02 04:02:48;;;;;;;;;;;;;;;14.50;47.75;99287.05;1708999;83;20236;-64
2022/01/02 04:05:15;;;;;;;;;;;;;;;14.61;47.25;99295.91;1708823;83;21172;-64
2022/01/02 04:07:42;;;;;;;;;;;;;;;14.20;47.75;99297.67;1708057;83;20124;-64
2022/01/02 04:10:12;;;;;;;;;;;;;;;14.27;48.09;99303.59;1710192;83;20315;-64
2022/01/02 04:12:40;;;;;;;;;;;;;;;14.28;47.56;99306.52;1710121;83;20529;-64
2022/01/02 04:15:09;;;;;;;;;;;;;;;14.30;47.66;99308.37;1665165;86;20174;-64
2022/01/02 04:17:37;;;;;;;;;;;;;;;14.34;47.29;99301.64;1666228;86;21141;-63
2022/01/02 04:20:05;;;;;;;;;;;;;;;14.68;46.78;99309.70;1692773;83;20091;-65
2022/01/02 04:22:32;;;;;;;;;;;;;;;14.34;47.10;99317.38;1695167;83;20291;-64
2022/01/02 04:25:02;;;;;;;;;;;;;;;14.22;47.47;99321.84;1695001;84;20978;-63
2022/01/02 04:27:29;;;;;;;;;;;;;;;14.05;47.64;99336.65;1698238;83;20137;-65
2022/01/02 04:29:57;;;;;;;;;;;;;;;14.05;47.71;99340.58;1698422;83;21182;-63
2022/01/02 04:32:23;;;;;;;;;;;;;;;14.21;47.40;99337.81;1698039;83;20136;-64
2022/01/02 04:34:52;;;;;;;;;;;;;;;14.20;47.36;99341.44;1698174;83;21222;-64
2022/01/02 04:37:19;;;;;;;;;;;;;;;14.27;47.25;99341.60;1658683;84;21195;-63
2022/01/02 04:39:47;;;;;;;;;;;;;;;14.12;47.52;99358.30;1665930;85;20176;-64
2022/01/02 04:42:14;;;;;;;;;;;;;;;14.28;47.12;99360.25;1665859;85;21132;-64
2022/01/02 04:44:44;;;;;;;;;;;;;;;14.24;46.79;99377.95;1673783;84;20149;-64
2022/01/02 04:47:12;;;;;;;;;;;;;;;14.28;46.47;99379.09;1673839;84;20223;-64
2022/01/02 04:49:40;;;;;;;;;;;;;;;14.25;46.46;99378.27;1674690;84;20145;-64
2022/01/02 04:52:07;;;;;;;;;;;;;;;13.96;46.62;99383.87;1673899;84;20149;-63
2022/01/02 04:54:33;;;;;;;;;;;;;;;13.82;46.98;99398.99;1673083;85;21162;-64
2022/01/02 04:56:59;;;;;;;;;;;;;;;14.12;46.51;99395.78;1673585;84;20238;-63
2022/01/02 04:59:26;;;;;;;;;;;;;;;13.90;46.39;99403.11;1674379;84;20497;-63
2022/01/02 05:01:54;;;;;;;;;;;;;;;13.80;46.46;99418.08;1675401;84;20949;-63
2022/01/02 05:04:21;;;;;;;;;;;;;;;13.75;46.39;99421.38;1676240;85;20522;-64
2022/01/02 05:06:47;;;;;;;;;;;;;;;13.94;45.87;99419.48;1675466;85;21222;-64
2022/01/02 05:09:14;;;;;;;;;;;;;;;14.06;45.81;99428.16;1676885;85;20235;-63
2022/01/02 05:11:42;;;;;;;;;;;;;;;14.15;45.48;99435.69;1676788;85;20434;-63
2022/01/02 05:14:09;;;;;;;;;;;;;;;14.16;45.55;99439.89;1676817;85;20311;-63
2022/01/02 05:16:35;;;;;;;;;;;;;;;13.62;46.30;99445.92;1676897;85;20438;-63
2022/01/02 05:19:06;;;;;;;;;;;;;;;13.75;46.08;99455.91;1675682;85;21199;-63
2022/01/02 05:21:35;;;;;;;;;;;;;;;14.19;45.23;99453.34;1676458;84;20220;-62
2022/01/02 05:24:03;;;;;;;;;;;;;;;13.69;45.49;99459.44;1676501;84;20410;-64
2022/01/02 05:26:29;;;;;;;;;;;;;;;13.67;45.90;99475.87;1677223;85;20125;-63
2022/01/02 05:28:57;;;;;;;;;;;;;;;13.85;45.61;99471.39;1675650;85;20113;-63
2022/01/02 05:31:23;;;;;;;;;;;;;;;14.17;45.06;99480.31;1676811;85;21174;-63
2022/01/02 05:33:50;;;;;;;;;;;;;;;14.38;44.65;99488.65;1676425;85;20156;-63
2022/01/02 05:36:17;;;;;;;;;;;;;;;14.25;44.61;99491.77;1676826;85;20426;-63
2022/01/02 05:38:44;;;;;;;;;;;;;;;13.90;44.81;99510.52;1676021;85;20426;-65
2022/01/02 05:41:11;;;;;;;;;;;;;;;14.03;44.58;99501.18;1675946;85;20129;-63
2022/01/02 05:43:39;;;;;;;;;;;;;;;13.72;45.01;99516.62;1676715;85;22955;-63
2022/01/02 05:46:07;;;;;;;;;;;;;;;13.90;44.94;99521.00;1676173;85;20113;-63
2022/01/02 05:48:34;;;;;;;;;;;;;;;14.02;44.46;99520.55;1676480;85;20109;-64
2022/01/02 05:51:01;;;;;;;;;;;;;;;14.21;44.31;99518.16;1675999;85;20207;-63
2022/01/02 05:53:30;;;;;;;;;;;;;;;14.25;44.11;99522.44;1676453;84;20151;-62
2022/01/02 05:55:57;;;;;;;;;;;;;;;14.28;44.04;99526.72;1650187;85;21960;-63
2022/01/02 05:58:24;;;;;;;;;;;;;;;14.28;43.90;99535.89;1676588;85;20088;-64
2022/01/02 06:00:54;;;;;;;;;;;;;;;14.42;43.96;99541.72;1675769;85;20128;-65
2022/01/02 06:03:20;;;;;;;;;;;;;;;14.68;44.02;99545.77;1676778;85;21130;-64
2022/01/02 06:05:47;;;;;;;;;;;;;;;14.83;44.00;99546.13;1676815;85;20162;-64
2022/01/02 06:08:14;;;;;;;;;;;;;;;14.67;44.04;99556.51;1676718;85;21126;-64
2022/01/02 06:10:42;;;;;;;;;;;;;;;14.70;43.88;99556.86;1676567;85;20159;-63
2022/01/02 06:13:10;;;;;;;;;;;;;;;14.97;43.41;99565.59;1675179;84;20421;-63
2022/01/02 06:15:38;;;;;;;;;;;;;;;14.87;43.49;99567.46;1676753;85;20199;-63
2022/01/02 06:18:06;;;;;;;;;;;;;;;14.72;43.43;99578.91;1676545;85;20200;-63
2022/01/02 06:20:33;;;;;;;;;;;;;;;14.62;43.26;99584.70;1676606;85;21168;-62
2022/01/02 06:23:00;;;;;;;;;;;;;;;14.77;42.97;99596.08;1676270;85;20496;-67
2022/01/02 06:25:27;;;;;;;;;;;;;;;14.75;42.59;99598.94;1675900;85;20192;-62
2022/01/02 06:27:53;;;;;;;;;;;;;;;14.27;42.97;99591.16;1676779;85;20877;-62
2022/01/02 06:30:20;;;;;;;;;;;;;;;14.51;42.83;99619.60;1676792;85;20395;-62
2022/01/02 06:32:55;;;;;;;;;;;;;;;13.85;43.31;99618.09;1676620;85;20444;-64
2022/01/02 06:35:19;;;;;;;;;;;;;;;14.10;43.06;99631.62;1675444;85;20234;-67
2022/01/02 06:37:45;;;;;;;;;;;;;;;13.97;42.79;99639.11;1676649;85;20242;-64
2022/01/02 06:40:13;;;;;;;;;;;;;;;13.76;43.01;99639.06;1676650;85;20440;-63
2022/01/02 06:42:41;;;;;;;;;;;;;;;13.65;42.76;99646.34;1676766;85;20120;-64
2022/01/02 06:45:08;;;;;;;;;;;;;;;13.58;43.25;99651.64;1677155;85;21136;-64
2022/01/02 06:47:37;;;;;;;;;;;;;;;13.63;43.05;99663.56;1675978;85;20176;-64
2022/01/02 06:50:06;;;;;;;;;;;;;;;13.17;43.42;99649.58;1676655;85;20290;-64
2022/01/02 06:52:32;;;;;;;;;;;;;;;12.86;43.93;99661.69;1676071;85;20224;-64
2022/01/02 06:55:00;;;;;;;;;;;;;;;12.78;44.43;99675.03;1676761;85;20162;-64
2022/01/02 06:57:27;;;;;;;;;;;;;;;12.75;44.56;99676.76;1676033;85;21107;-67
2022/01/02 06:59:54;;;;;;;;;;;;;;;12.80;44.31;99688.69;1676122;84;20222;-65
2022/01/02 07:02:20;;;;;;;;;;;;;;;12.65;44.56;99694.71;1675617;84;20521;-64
2022/01/02 07:04:47;;;;;;;;;;;;;;;12.59;44.78;99698.98;1674295;84;20220;-65
2022/01/02 07:07:13;;;;;;;;;;;;;;;12.85;44.27;99710.31;1674880;84;20093;-64
2022/01/02 07:09:40;;;;;;;;;;;;;;;12.69;44.63;99704.25;1672913;84;21183;-65
2022/01/02 07:12:06;;;;;;;;;;;;;;;12.58;44.64;99717.00;1673513;85;20175;-65
2022/01/02 07:14:34;;;;;;;;;;;;;;;12.83;44.25;99722.27;1674365;84;20093;-65
2022/01/02 07:17:00;;;;;;;;;;;;;;;12.89;44.22;99722.75;1674451;84;20331;-65
2022/01/02 07:19:29;;;;;;;;;;;;;;;13.16;43.85;99740.88;1674897;84;20148;-67
2022/01/02 07:21:59;;;;;;;;;;;;;;;13.16;43.73;99740.88;1673785;84;21180;-65
2022/01/02 07:24:25;;;;;;;;;;;;;;;13.16;43.35;99742.19;1673970;84;20168;-66
2022/01/02 07:26:54;;;;;;;;;;;;;;;12.98;43.38;99750.76;1674315;84;20121;-66
2022/01/02 07:29:20;;;;;;;;;;;;;;;13.04;43.15;99770.86;1673700;84;20361;-66
2022/01/02 07:31:46;;;;;;;;;;;;;;;12.77;43.01;99761.56;1673033;84;20260;-68
2022/01/02 07:34:16;;;;;;;;;;;;;;;12.45;43.37;99770.63;1674135;84;21175;-64
2022/01/02 07:36:45;;;;;;;;;;;;;;;12.86;42.73;99774.17;1674786;84;20148;-64
2022/01/02 07:39:13;;;;;;;;;;;;;;;13.16;41.87;99774.91;1674363;84;20403;-64
2022/01/02 07:41:40;;;;;;;;;;;;;;;13.07;41.93;99778.80;1674498;84;20212;-65
2022/01/02 07:44:06;;;;;;;;;;;;;;;13.33;41.81;99789.61;1673925;84;20547;-64
2022/01/02 07:46:33;;;;;;;;;;;;;;;13.41;41.41;99795.09;1673716;84;21160;-64
2022/01/02 07:48:59;;;;;;;;;;;;;;;13.41;41.05;99799.02;1673890;84;20105;-64
2022/01/02 07:51:28;;;;;;;;;;;;;;;13.11;41.72;99803.53;1672706;85;20489;-64
2022/01/02 07:53:54;;;;;;;;;;;;;;;13.30;41.22;99803.94;1672248;84;20467;-66
2022/01/02 07:56:21;;;;;;;;;;;;;;;13.41;40.97;99804.25;1673110;84;20254;-64
2022/01/02 07:58:49;;;;;;;;;;;;;;;13.31;40.93;99802.92;1674173;84;21829;-64
2022/01/02 08:01:17;;;;;;;;;;;;;;;13.59;40.14;99818.72;1673357;84;20146;-64
2022/01/02 08:03:44;;;;;;;;;;;;;;;13.66;39.52;99809.00;1678514;85;20096;-65
2022/01/02 08:06:10;;;;;;;;;;;;;;;13.65;39.42;99836.22;1659902;85;20521;-66
2022/01/02 08:08:38;;;;;;;;;;;;;;;13.89;38.97;99831.98;1677558;85;20148;-65
2022/01/02 08:11:06;;;;;;;;;;;;;;;13.81;39.01;99831.75;1674368;84;21180;-65
2022/01/02 08:13:32;;;;;;;;;;;;;;;14.00;38.93;99843.08;1679303;85;20190;-66
2022/01/02 08:15:58;;;;;;;;;;;;;;;14.32;38.49;99841.17;1671799;85;20247;-66
2022/01/02 08:18:26;;;;;;;;;;;;;;;14.53;38.17;99848.34;1668011;85;21224;-68
2022/01/02 08:20:57;;;;;;;;;;;;;;;14.27;38.01;99843.63;1665167;85;20127;-68
2022/01/02 08:23:24;;;;;;;;;;;;;;;13.61;38.34;99858.10;1664592;85;21970;-67
2022/01/02 08:25:53;;;;;;;;;;;;;;;13.87;38.00;99868.09;1666630;85;20120;-68
2022/01/02 08:28:22;;;;;;;;;;;;;;;14.16;37.48;99873.17;1671622;85;20190;-67
2022/01/02 08:30:48;;;;;;;;;;;;;;;14.33;37.13;99882.09;1672384;85;20452;-69
2022/01/02 08:33:15;;;;;;;;;;;;;;;14.40;37.08;99879.92;1675503;85;20255;-69
2022/01/02 08:35:43;;;;;;;;;;;;;;;14.43;36.74;99878.16;1667799;85;20198;-68
2022/01/02 08:38:10;;;;;;;;;;;;;;;14.54;36.26;99883.52;1676054;85;20208;-67
2022/01/02 08:40:37;;;;;;;;;;;;;;;14.52;36.62;99879.52;1678903;85;20171;-67
2022/01/02 08:43:03;;;;;;;;;;;;;;;14.50;36.09;99882.86;1676164;85;20643;-66
2022/01/02 08:45:31;;;;;;;;;;;;;;;14.64;36.11;99884.84;1678843;85;20186;-67
2022/01/02 08:47:58;;;;;;;;;;;;;;;14.05;36.85;99890.91;1676745;85;22067;-66
2022/01/02 08:50:27;;;;;;;;;;;;;;;13.80;37.55;99889.09;1678137;85;21266;-67
2022/01/02 08:52:53;;;;;;;;;;;;;;;13.93;37.66;99892.63;1675747;85;20375;-66
2022/01/02 08:55:20;;;;;;;;;;;;;;;14.10;37.83;99892.39;1658275;85;20596;-66
2022/01/02 08:57:48;;;;;;;;;;;;;;;14.34;37.55;99896.00;1649159;85;20566;-67
2022/01/02 09:00:15;;;;;;;;;;;;;;;14.53;37.33;99897.66;1669190;85;21154;-67
2022/01/02 09:02:41;;;;;;;;;;;;;;;14.34;37.55;99900.73;1672603;85;20325;-67
2022/01/02 09:05:08;;;;;;;;;;;;;;;14.41;37.55;99904.61;1677974;83;20483;-67
2022/01/02 09:07:39;;;;;;;;;;;;;;;14.56;37.35;99909.55;1679763;85;20151;-67
2022/01/02 09:10:09;;;;;;;;;;;;;;;14.77;36.95;99906.98;1679131;83;20100;-68
2022/01/02 09:12:37;;;;;;;;;;;;;;;14.13;37.47;99909.01;1681431;83;20190;-66
2022/01/02 09:15:04;;;;;;;;;;;;;;;14.11;37.52;99928.06;1680165;83;20171;-67
2022/01/02 09:17:34;;;;;;;;;;;;;;;13.70;38.37;99931.98;1681499;83;20160;-68
2022/01/02 09:20:01;;;;;;;;;;;;;;;13.66;37.94;99927.38;1680111;83;20183;-68
2022/01/02 09:22:27;;;;;;;;;;;;;;;13.94;37.66;99923.05;1680270;83;20219;-67
2022/01/02 09:24:53;;;;;;;;;;;;;;;13.70;37.83;99935.11;1680609;83;21152;-67
2022/01/02 09:27:20;;;;;;;;;;;;;;;13.45;37.20;99923.25;1682129;83;20203;-68
2022/01/02 09:29:46;;;;;;;;;;;;;;;13.37;36.06;99925.13;1681055;83;20157;-67
2022/01/02 09:32:13;;;;;;;;;;;;;;;13.19;36.07;99940.68;1680001;83;21452;-67
2022/01/02 09:34:39;;;;;;;;;;;;;;;13.38;35.76;99937.70;1681225;83;20571;-70
2022/01/02 09:37:07;;;;;;;;;;;;;;;13.54;35.44;99940.34;1682158;83;21177;-68
2022/01/02 09:39:34;;;;;;;;;;;;;;;13.62;35.40;99945.33;1680943;83;20161;-67
2022/01/02 09:42:03;;;;;;;;;;;;;;;13.67;35.14;99953.34;1680496;83;20143;-70
2022/01/02 09:44:31;;;;;;;;;;;;;;;14.09;34.91;99944.02;1679712;85;20243;-68
2022/01/02 09:46:57;;;;;;;;;;;;;;;13.89;34.71;99945.96;1678219;83;20357;-69
2022/01/02 09:49:23;;;;;;;;;;;;;;;14.26;34.32;99949.52;1654905;85;21615;-69
2022/01/02 09:51:50;;;;;;;;;;;;;;;14.57;33.84;99957.04;1681282;85;20227;-71
2022/01/02 09:54:18;;;;;;;;;;;;;;;14.24;33.85;99955.47;1678584;83;20440;-70
2022/01/02 09:56:46;;;;;;;;;;;;;;;14.30;34.02;99966.94;1680844;85;21345;-71
2022/01/02 09:59:13;;;;;;;;;;;;;;;14.15;34.23;99968.56;1681587;83;20153;-70
2022/01/02 10:01:42;;;;;;;;;;;;;;;14.33;33.85;99967.31;1681557;83;21267;-70
2022/01/02 10:04:09;;;;;;;;;;;;;;;14.28;33.55;99967.64;1674619;83;20184;-68
2022/01/02 10:06:47;;;;;;;;;;;;;;;14.50;32.78;99978.08;1689975;83;21065;-70
2022/01/02 10:09:34;;;;;;;;;;;;;;;14.73;32.49;99987.16;1672622;83;20141;-70
2022/01/02 10:12:22;;;;;;;;;;;;;;;14.53;32.32;99997.32;1674085;83;20172;-69
2022/01/02 10:15:07;;;;;;;;;;;;;;;14.61;32.50;100006.73;1674804;84;21203;-69
2022/01/02 10:17:54;;;;;;;;;;;;;;;14.64;32.06;100019.43;1663920;84;20345;-69
2022/01/02 10:20:22;;;;;;;;;;;;;;;14.85;31.54;100016.94;1673542;84;20165;-70
2022/01/02 10:23:11;;;;;;;;;;;;;;;14.70;31.74;100015.96;1674766;84;20146;-67
2022/01/02 10:25:47;;;;;;;;;;;;;;;13.79;32.52;100029.48;1674093;84;20223;-69
2022/01/02 10:28:20;;;;;;;;;;;;;;;13.43;32.96;100024.27;1674395;84;21305;-69
2022/01/02 10:30:51;;;;;;;;;;;;;;;13.29;32.80;100031.36;1673942;84;20207;-68
2022/01/02 10:33:19;;;;;;;;;;;;;;;13.46;32.81;100040.09;1673786;84;20167;-71
2022/01/02 10:35:49;;;;;;;;;;;;;;;13.09;32.69;100038.44;1673057;84;20205;-71
2022/01/02 10:38:18;;;;;;;;;;;;;;;13.27;32.52;100042.55;1672509;84;20437;-66
2022/01/02 10:40:44;;;;;;;;;;;;;;;13.02;32.60;100053.34;1672383;84;21159;-69
2022/01/02 10:43:23;;;;;;;;;;;;;;;12.89;32.51;100063.33;1670181;84;21159;-68
2022/01/02 10:45:53;;;;;;;;;;;;;;;13.04;32.48;100064.42;1673570;84;20533;-69
2022/01/02 10:48:36;;;;;;;;;;;;;;;12.87;32.56;100070.56;1672858;84;20520;-67
2022/01/02 10:51:15;;;;;;;;;;;;;;;12.73;32.77;100064.55;1674058;84;20143;-70
2022/01/02 10:53:52;;;;;;;;;;;;;;;12.48;33.19;100072.17;1673996;84;21970;-69
2022/01/02 10:56:25;;;;;;;;;;;;;;;12.79;32.57;100068.95;1673092;84;38982;-67
2022/01/02 10:58:52;;;;;;;;;;;;;;;12.98;32.20;100058.17;1673482;84;20445;-71
2022/01/02 11:01:18;;;;;;;;;;;;;;;12.86;32.27;100065.03;1674352;84;20785;-70
2022/01/02 11:03:45;;;;;;;;;;;;;;;13.14;32.20;100070.86;1648915;84;20194;-73
2022/01/02 11:06:15;;;;;;;;;;;;;;;12.98;31.71;100069.95;1675108;85;21145;-72
2022/01/02 11:08:44;;;;;;;;;;;;;;;13.00;31.63;100075.00;1677443;85;21017;-71
2022/01/02 11:11:12;;;;;;;;;;;;;;;13.04;31.47;100075.69;1677473;84;20126;-72
2022/01/02 11:13:38;;;;;;;;;;;;;;;11.37;33.06;100086.74;1677440;84;20508;-71
2022/01/02 11:16:05;;;;;;;;;;;;;;;10.54;33.67;100089.64;1676387;84;20114;-71
2022/01/02 11:18:33;;;;;;;;;;;;;;;10.30;34.70;100093.39;1677503;84;21124;-71
2022/01/02 11:21:02;;;;;;;;;;;;;;;10.54;34.53;100109.69;1677369;84;20190;-71
2022/01/02 11:23:50;;;;;;;;;;;;;;;11.21;34.21;100106.59;1677576;84;20095;-71
2022/01/02 11:26:56;;;;;;;;;;;;;;;10.69;34.11;100124.77;1676622;84;21258;-71
2022/01/02 11:29:27;;;;;;;;;;;;;;;9.95;34.94;100134.85;1675241;84;20171;-72
2022/01/02 11:31:54;;;;;;;;;;;;;;;10.31;34.90;100135.91;1676538;84;21123;-73
2022/01/02 11:34:27;;;;;;;;;;;;;;;10.67;34.03;100142.37;1676446;84;20098;-72
2022/01/02 11:37:18;;;;;;;;;;;;;;;10.43;34.32;100152.67;1676140;84;20079;-74
2022/01/02 11:39:58;;;;;;;;;;;;;;;11.45;32.70;100144.52;1676883;84;20106;-72
2022/01/02 11:42:42;;;;;;;;;;;;;;;11.59;31.74;100146.20;1676612;84;20160;-72
2022/01/02 11:45:24;;;;;;;;;;;;;;;12.00;31.57;100152.45;1675940;84;21198;-71
2022/01/02 11:47:51;;;;;;;;;;;;;;;10.40;33.25;100159.55;1677042;84;20119;-70
2022/01/02 11:50:36;;;;;;;;;;;;;;;10.13;33.24;100159.72;1674650;84;20136;-70
2022/01/02 11:53:14;;;;;;;;;;;;;;;10.20;33.32;100172.33;1675892;84;20099;-69
2022/01/02 11:55:43;;;;;;;;;;;;;;;9.93;33.26;100172.50;1677381;84;20343;-70
2022/01/02 11:58:10;;;;;;;;;;;;;;;10.11;33.42;100189.03;1675210;84;21127;-69
2022/01/02 12:00:45;;;;;;;;;;;;;;;10.24;33.07;100191.31;1676111;84;20269;-67
2022/01/02 12:03:44;;;;;;;;;;;;;;;10.02;33.31;100190.93;1675346;84;20234;-67
2022/01/02 12:06:33;;;;;;;;;;;;;;;10.19;33.15;100190.22;1671727;84;20244;-68
2022/01/02 12:09:01;;;;;;;;;;;;;;;9.77;33.46;100189.08;1672987;84;20129;-70
2022/01/02 12:11:41;;;;;;;;;;;;;;;9.74;33.86;100211.59;1671030;84;21136;-69
2022/01/02 12:14:20;;;;;;;;;;;;;;;9.33;34.07;100223.67;1673714;84;20112;-66
2022/01/02 12:17:07;;;;;;;;;;;;;;;9.55;34.12;100225.12;1673370;84;20455;-73
2022/01/02 12:19:30;;;;;;;;;;;;;;;8.75;34.95;100232.84;1674562;84;20691;-69
2022/01/02 12:22:10;;;;;;;;;;;;;;;8.64;35.29;100242.35;1644912;84;20174;-67
2022/01/02 12:24:37;;;;;;;;;;;;;;;9.13;34.56;100241.55;1671306;84;21724;-70
2022/01/02 12:27:13;;;;;;;;;;;;;;;9.08;34.15;100250.84;1674054;84;20275;-72
2022/01/02 12:29:40;;;;;;;;;;;;;;;8.42;34.90;100256.41;1669665;82;20236;-64
2022/01/02 12:32:07;;;;;;;;;;;;;;;8.01;35.83;100248.72;1670653;84;20458;-66
2022/01/02 12:34:36;;;;;;;;;;;;;;;8.42;35.63;100250.41;1672818;84;20547;-71
2022/01/02 12:37:03;;;;;;;;;;;;;;;8.41;35.39;100264.34;1673690;84;21137;-71
2022/01/02 12:39:37;;;;;;;;;;;;;;;8.68;34.40;100266.52;1673995;84;20296;-64
2022/01/02 12:42:06;;;;;;;;;;;;;;;8.80;33.87;100274.74;1673119;84;20236;-62
2022/01/02 12:44:35;;;;;;;;;;;;;;;8.64;34.37;100278.73;1674362;84;20955;-70
2022/01/02 12:47:04;;;;;;;;;;;;;;;8.77;33.96;100287.58;1674942;84;20273;-68
2022/01/02 12:49:33;;;;;;;;;;;;;;;8.86;34.31;100292.23;1674782;84;21165;-61
2022/01/02 12:52:08;;;;;;;;;;;;;;;8.26;35.09;100301.40;1674299;84;20413;-66
2022/01/02 12:54:40;;;;;;;;;;;;;;;9.14;33.62;100301.67;1672384;84;20266;-66
2022/01/02 12:57:08;;;;;;;;;;;;;;;8.92;34.16;100320.16;1673142;84;20476;-63
2022/01/02 12:59:48;;;;;;;;;;;;;;;9.15;33.36;100314.19;1674208;84;20156;-63
2022/01/02 13:02:19;;;;;;;;;;;;;;;8.20;34.56;100315.03;1674377;84;21208;-61
2022/01/02 13:04:56;;;;;;;;;;;;;;;8.58;33.77;100319.67;1670754;84;20252;-66